sensor_id;sensor_type;location;lat;lon;timestamp;temperature;humidity
11152;DHT22;5630;49.342;10.802;2023-05-20T00:00:53;13.20;99.90
11152;DHT22;5630;49.342;10.802;2023-05-20T00:03:19;13.20;99.90
11152;DHT22;5630;49.342;10.802;2023-05-20T00:05:45;13.20;99.90
11152;DHT22;5630;49.342;10.802;2023-05-20T00:08:11;13.20;99.90
11152;DHT22;5630;49.342;10.802;2023-05-20T00:10:37;13.20;99.90
11152;DHT22;5630;49.342;10.802;2023-05-20T00:13:03;13.20;99.90
11152;DHT22;5630;49.342;10.802;2023-05-20T00:15:28;13.10;99.90
11152;DHT22;5630;49.342;10.802;2023-05-20T00:17:55;13.20;99.90
11152;DHT22;5630;49.342;10.802;2023-05-20T00:20:20;13.10;99.90
11152;DHT22;5630;49.342;10.802;2023-05-20T00:22:46;13.10;99.90
11152;DHT22;5630;49.342;10.802;2023-05-20T00:25:11;13.10;99.90
11152;DHT22;5630;49.342;10.802;2023-05-20T00:27:39;13.10;99.90
11152;DHT22;5630;49.342;10.802;2023-05-20T00:30:05;13.10;99.90
11152;DHT22;5630;49.342;10.802;2023-05-20T00:32:32;13.10;99.90
11152;DHT22;5630;49.342;10.802;2023-05-20T00:34:58;13.10;99.90
11152;DHT22;5630;49.342;10.802;2023-05-20T00:37:24;13.10;99.90
11152;DHT22;5630;49.342;10.802;2023-05-20T00:39:50;13.00;99.90
11152;DHT22;5630;49.342;10.802;2023-05-20T00:42:23;13.00;99.90
11152;DHT22;5630;49.342;10.802;2023-05-20T00:44:50;13.00;99.90
11152;DHT22;5630;49.342;10.802;2023-05-20T00:47:17;13.00;99.90
11152;DHT22;5630;49.342;10.802;2023-05-20T00:49:48;13.00;99.90
11152;DHT22;5630;49.342;10.802;2023-05-20T00:52:14;13.10;99.90
11152;DHT22;5630;49.342;10.802;2023-05-20T00:54:40;13.10;99.90
11152;DHT22;5630;49.342;10.802;2023-05-20T00:57:06;13.10;99.90
11152;DHT22;5630;49.342;10.802;2023-05-20T00:59:35;13.10;99.90
11152;DHT22;5630;49.342;10.802;2023-05-20T01:02:04;13.10;99.90
11152;DHT22;5630;49.342;10.802;2023-05-20T01:04:31;13.10;99.90
11152;DHT22;5630;49.342;10.802;2023-05-20T01:06:58;13.10;99.90
11152;DHT22;5630;49.342;10.802;2023-05-20T01:09:24;13.10;99.90
11152;DHT22;5630;49.342;10.802;2023-05-20T01:11:55;13.10;99.90
11152;DHT22;5630;49.342;10.802;2023-05-20T01:14:26;13.20;99.90
11152;DHT22;5630;49.342;10.802;2023-05-20T01:16:54;13.10;99.90
11152;DHT22;5630;49.342;10.802;2023-05-20T01:19:38;13.10;99.90
11152;DHT22;5630;49.342;10.802;2023-05-20T01:22:07;13.10;99.90
11152;DHT22;5630;49.342;10.802;2023-05-20T01:24:43;13.10;99.90
11152;DHT22;5630;49.342;10.802;2023-05-20T01:27:12;13.10;99.90
11152;DHT22;5630;49.342;10.802;2023-05-20T01:29:41;13.10;99.90
11152;DHT22;5630;49.342;10.802;2023-05-20T01:32:22;13.10;99.90
11152;DHT22;5630;49.342;10.802;2023-05-20T01:34:49;13.10;99.90
11152;DHT22;5630;49.342;10.802;2023-05-20T01:37:17;13.20;99.90
11152;DHT22;5630;49.342;10.802;2023-05-20T01:39:44;13.20;99.90
11152;DHT22;5630;49.342;10.802;2023-05-20T01:42:10;13.10;99.90
11152;DHT22;5630;49.342;10.802;2023-05-20T01:44:38;13.20;99.90
11152;DHT22;5630;49.342;10.802;2023-05-20T01:47:04;13.10;99.90
11152;DHT22;5630;49.342;10.802;2023-05-20T01:49:29;13.20;99.90
11152;DHT22;5630;49.342;10.802;2023-05-20T01:51:55;13.20;99.90
11152;DHT22;5630;49.342;10.802;2023-05-20T01:54:20;13.20;99.90
11152;DHT22;5630;49.342;10.802;2023-05-20T01:56:46;13.20;99.90
11152;DHT22;5630;49.342;10.802;2023-05-20T01:59:12;13.20;99.90
11152;DHT22;5630;49.342;10.802;2023-05-20T02:01:37;13.20;99.90
11152;DHT22;5630;49.342;10.802;2023-05-20T02:04:03;13.20;99.90
11152;DHT22;5630;49.342;10.802;2023-05-20T02:06:29;13.20;99.90
11152;DHT22;5630;49.342;10.802;2023-05-20T02:08:54;13.20;99.90
11152;DHT22;5630;49.342;10.802;2023-05-20T02:11:20;13.20;99.90
11152;DHT22;5630;49.342;10.802;2023-05-20T02:13:46;13.10;99.90
11152;DHT22;5630;49.342;10.802;2023-05-20T02:16:12;13.10;99.90
11152;DHT22;5630;49.342;10.802;2023-05-20T02:18:37;13.10;99.90
11152;DHT22;5630;49.342;10.802;2023-05-20T02:21:03;13.10;99.90
11152;DHT22;5630;49.342;10.802;2023-05-20T02:23:30;13.20;99.90
11152;DHT22;5630;49.342;10.802;2023-05-20T02:25:55;13.10;99.90
11152;DHT22;5630;49.342;10.802;2023-05-20T02:28:21;13.10;99.90
11152;DHT22;5630;49.342;10.802;2023-05-20T05:48:05;13.60;99.90
11152;DHT22;5630;49.342;10.802;2023-05-20T05:50:31;13.70;99.90
11152;DHT22;5630;49.342;10.802;2023-05-20T05:52:56;13.70;99.90
11152;DHT22;5630;49.342;10.802;2023-05-20T05:55:25;13.80;99.90
11152;DHT22;5630;49.342;10.802;2023-05-20T05:57:50;13.80;99.90
11152;DHT22;5630;49.342;10.802;2023-05-20T06:00:17;13.90;99.90
11152;DHT22;5630;49.342;10.802;2023-05-20T06:02:43;13.90;99.90
11152;DHT22;5630;49.342;10.802;2023-05-20T06:05:09;13.90;99.90
11152;DHT22;5630;49.342;10.802;2023-05-20T06:07:34;13.90;99.90
11152;DHT22;5630;49.342;10.802;2023-05-20T06:10:00;13.90;99.90
11152;DHT22;5630;49.342;10.802;2023-05-20T06:12:26;14.00;99.90
11152;DHT22;5630;49.342;10.802;2023-05-20T06:14:51;14.10;99.90
11152;DHT22;5630;49.342;10.802;2023-05-20T06:17:17;14.20;99.90
11152;DHT22;5630;49.342;10.802;2023-05-20T06:19:42;14.40;99.90
11152;DHT22;5630;49.342;10.802;2023-05-20T06:22:08;14.60;99.90
11152;DHT22;5630;49.342;10.802;2023-05-20T06:24:34;14.70;99.90
11152;DHT22;5630;49.342;10.802;2023-05-20T06:26:59;15.00;99.90
11152;DHT22;5630;49.342;10.802;2023-05-20T06:29:25;15.00;99.90
11152;DHT22;5630;49.342;10.802;2023-05-20T06:31:51;15.00;99.90
11152;DHT22;5630;49.342;10.802;2023-05-20T06:34:16;15.10;99.90
11152;DHT22;5630;49.342;10.802;2023-05-20T06:36:42;15.30;99.90
11152;DHT22;5630;49.342;10.802;2023-05-20T06:39:08;15.20;99.90
11152;DHT22;5630;49.342;10.802;2023-05-20T06:41:39;15.20;99.90
11152;DHT22;5630;49.342;10.802;2023-05-20T06:44:05;15.30;99.90
11152;DHT22;5630;49.342;10.802;2023-05-20T06:46:32;15.50;99.90
11152;DHT22;5630;49.342;10.802;2023-05-20T06:48:58;15.60;99.90
11152;DHT22;5630;49.342;10.802;2023-05-20T06:51:23;15.70;99.90
11152;DHT22;5630;49.342;10.802;2023-05-20T06:53:49;15.80;99.90
11152;DHT22;5630;49.342;10.802;2023-05-20T06:56:14;15.90;99.90
11152;DHT22;5630;49.342;10.802;2023-05-20T06:58:40;16.00;99.90
11152;DHT22;5630;49.342;10.802;2023-05-20T07:01:05;16.20;99.90
11152;DHT22;5630;49.342;10.802;2023-05-20T07:03:31;16.30;99.90
11152;DHT22;5630;49.342;10.802;2023-05-20T07:05:58;16.40;99.90
11152;DHT22;5630;49.342;10.802;2023-05-20T07:08:23;16.50;99.90
11152;DHT22;5630;49.342;10.802;2023-05-20T07:10:49;16.60;99.90
11152;DHT22;5630;49.342;10.802;2023-05-20T07:13:15;16.90;99.90
11152;DHT22;5630;49.342;10.802;2023-05-20T07:15:40;17.00;99.90
11152;DHT22;5630;49.342;10.802;2023-05-20T07:18:06;17.10;99.90
11152;DHT22;5630;49.342;10.802;2023-05-20T07:20:31;17.30;99.90
11152;DHT22;5630;49.342;10.802;2023-05-20T07:22:57;17.40;99.90
11152;DHT22;5630;49.342;10.802;2023-05-20T07:25:22;17.40;99.90
11152;DHT22;5630;49.342;10.802;2023-05-20T07:27:48;17.60;99.90
11152;DHT22;5630;49.342;10.802;2023-05-20T07:30:13;17.70;99.90
11152;DHT22;5630;49.342;10.802;2023-05-20T07:32:39;17.90;99.90
11152;DHT22;5630;49.342;10.802;2023-05-20T07:35:05;18.10;99.90
11152;DHT22;5630;49.342;10.802;2023-05-20T07:37:31;18.00;99.90
11152;DHT22;5630;49.342;10.802;2023-05-20T07:39:56;18.00;99.90
11152;DHT22;5630;49.342;10.802;2023-05-20T07:42:22;18.30;99.90
11152;DHT22;5630;49.342;10.802;2023-05-20T07:44:47;18.60;99.90
11152;DHT22;5630;49.342;10.802;2023-05-20T07:47:13;18.80;99.90
11152;DHT22;5630;49.342;10.802;2023-05-20T07:49:38;18.80;99.90
11152;DHT22;5630;49.342;10.802;2023-05-20T07:52:04;18.90;99.90
11152;DHT22;5630;49.342;10.802;2023-05-20T07:54:30;19.00;99.90
11152;DHT22;5630;49.342;10.802;2023-05-20T07:56:55;19.00;99.90
11152;DHT22;5630;49.342;10.802;2023-05-20T07:59:21;19.20;99.90
11152;DHT22;5630;49.342;10.802;2023-05-20T08:01:46;19.30;99.90
11152;DHT22;5630;49.342;10.802;2023-05-20T08:04:12;19.30;99.90
11152;DHT22;5630;49.342;10.802;2023-05-20T08:06:38;19.40;99.90
11152;DHT22;5630;49.342;10.802;2023-05-20T08:09:04;19.40;99.90
11152;DHT22;5630;49.342;10.802;2023-05-20T08:11:29;19.60;99.90
11152;DHT22;5630;49.342;10.802;2023-05-20T08:13:55;19.40;99.90
11152;DHT22;5630;49.342;10.802;2023-05-20T08:16:21;19.50;99.90
11152;DHT22;5630;49.342;10.802;2023-05-20T08:18:46;19.70;99.90
11152;DHT22;5630;49.342;10.802;2023-05-20T08:21:12;19.90;99.90
11152;DHT22;5630;49.342;10.802;2023-05-20T08:23:38;20.10;99.90
11152;DHT22;5630;49.342;10.802;2023-05-20T08:26:04;20.20;99.90
11152;DHT22;5630;49.342;10.802;2023-05-20T08:28:30;20.30;99.90
11152;DHT22;5630;49.342;10.802;2023-05-20T08:30:56;20.20;99.90
11152;DHT22;5630;49.342;10.802;2023-05-20T08:33:24;19.90;99.90
11152;DHT22;5630;49.342;10.802;2023-05-20T08:35:50;19.70;99.90
11152;DHT22;5630;49.342;10.802;2023-05-20T08:38:15;19.70;99.90
11152;DHT22;5630;49.342;10.802;2023-05-20T08:40:41;19.60;99.90
11152;DHT22;5630;49.342;10.802;2023-05-20T08:43:06;19.70;99.90
11152;DHT22;5630;49.342;10.802;2023-05-20T08:45:33;19.90;99.90
11152;DHT22;5630;49.342;10.802;2023-05-20T08:48:02;20.30;99.90
11152;DHT22;5630;49.342;10.802;2023-05-20T08:50:29;20.40;99.90
11152;DHT22;5630;49.342;10.802;2023-05-20T08:52:55;20.50;99.90
11152;DHT22;5630;49.342;10.802;2023-05-20T08:58:09;21.00;99.90
11152;DHT22;5630;49.342;10.802;2023-05-20T09:00:35;21.10;99.90
11152;DHT22;5630;49.342;10.802;2023-05-20T09:03:01;21.30;99.90
11152;DHT22;5630;49.342;10.802;2023-05-20T09:05:28;21.30;99.90
11152;DHT22;5630;49.342;10.802;2023-05-20T09:08:04;21.00;99.90
11152;DHT22;5630;49.342;10.802;2023-05-20T09:10:31;21.10;99.90
11152;DHT22;5630;49.342;10.802;2023-05-20T09:12:59;21.00;99.90
11152;DHT22;5630;49.342;10.802;2023-05-20T09:15:26;21.20;99.90
11152;DHT22;5630;49.342;10.802;2023-05-20T09:17:51;21.50;99.90
11152;DHT22;5630;49.342;10.802;2023-05-20T09:20:17;21.70;99.90
11152;DHT22;5630;49.342;10.802;2023-05-20T09:22:42;21.90;99.90
11152;DHT22;5630;49.342;10.802;2023-05-20T09:25:08;21.90;99.90
11152;DHT22;5630;49.342;10.802;2023-05-20T09:27:36;22.00;99.90
11152;DHT22;5630;49.342;10.802;2023-05-20T09:30:05;22.30;99.90
11152;DHT22;5630;49.342;10.802;2023-05-20T09:32:31;22.50;99.90
11152;DHT22;5630;49.342;10.802;2023-05-20T09:34:57;22.80;99.90
11152;DHT22;5630;49.342;10.802;2023-05-20T09:37:25;23.00;99.90
11152;DHT22;5630;49.342;10.802;2023-05-20T09:39:55;23.10;99.90
11152;DHT22;5630;49.342;10.802;2023-05-20T09:42:25;23.20;99.90
11152;DHT22;5630;49.342;10.802;2023-05-20T09:44:54;22.90;99.90
11152;DHT22;5630;49.342;10.802;2023-05-20T09:47:20;23.20;99.90
11152;DHT22;5630;49.342;10.802;2023-05-20T09:49:47;23.30;99.90
11152;DHT22;5630;49.342;10.802;2023-05-20T09:52:14;23.10;99.90
11152;DHT22;5630;49.342;10.802;2023-05-20T09:54:42;23.40;99.90
11152;DHT22;5630;49.342;10.802;2023-05-20T09:57:09;23.40;99.90
11152;DHT22;5630;49.342;10.802;2023-05-20T09:59:36;23.70;99.90
11152;DHT22;5630;49.342;10.802;2023-05-20T10:02:02;23.90;99.90
11152;DHT22;5630;49.342;10.802;2023-05-20T10:04:28;23.80;99.90
11152;DHT22;5630;49.342;10.802;2023-05-20T10:09:59;23.70;99.90
11152;DHT22;5630;49.342;10.802;2023-05-20T10:21:01;24.30;99.90
11152;DHT22;5630;49.342;10.802;2023-05-20T10:23:29;24.40;99.90
11152;DHT22;5630;49.342;10.802;2023-05-20T10:25:56;24.30;99.90
11152;DHT22;5630;49.342;10.802;2023-05-20T10:28:33;24.40;99.90
11152;DHT22;5630;49.342;10.802;2023-05-20T10:31:14;23.80;99.90
11152;DHT22;5630;49.342;10.802;2023-05-20T10:33:45;23.80;99.90
11152;DHT22;5630;49.342;10.802;2023-05-20T10:36:24;23.70;99.90
11152;DHT22;5630;49.342;10.802;2023-05-20T10:38:52;23.60;99.90
11152;DHT22;5630;49.342;10.802;2023-05-20T10:41:26;23.60;99.90
11152;DHT22;5630;49.342;10.802;2023-05-20T10:44:02;23.40;99.90
11152;DHT22;5630;49.342;10.802;2023-05-20T10:46:29;23.10;99.90
11152;DHT22;5630;49.342;10.802;2023-05-20T10:48:56;23.00;99.90
11152;DHT22;5630;49.342;10.802;2023-05-20T10:51:22;23.10;99.90
11152;DHT22;5630;49.342;10.802;2023-05-20T10:53:52;23.30;99.90
11152;DHT22;5630;49.342;10.802;2023-05-20T10:56:20;23.70;99.90
11152;DHT22;5630;49.342;10.802;2023-05-20T10:58:47;24.00;99.90
11152;DHT22;5630;49.342;10.802;2023-05-20T11:01:13;24.10;99.90
11152;DHT22;5630;49.342;10.802;2023-05-20T11:03:42;24.20;99.90
11152;DHT22;5630;49.342;10.802;2023-05-20T11:06:18;24.20;99.90
11152;DHT22;5630;49.342;10.802;2023-05-20T11:08:44;24.30;99.90
11152;DHT22;5630;49.342;10.802;2023-05-20T11:11:11;24.40;99.90
11152;DHT22;5630;49.342;10.802;2023-05-20T11:13:37;24.40;99.90
11152;DHT22;5630;49.342;10.802;2023-05-20T11:16:02;24.20;99.90
11152;DHT22;5630;49.342;10.802;2023-05-20T11:18:29;24.00;99.90
11152;DHT22;5630;49.342;10.802;2023-05-20T11:20:59;24.30;99.90
11152;DHT22;5630;49.342;10.802;2023-05-20T11:23:27;24.40;99.90
11152;DHT22;5630;49.342;10.802;2023-05-20T11:25:54;24.50;99.90
11152;DHT22;5630;49.342;10.802;2023-05-20T11:28:20;24.70;99.90
11152;DHT22;5630;49.342;10.802;2023-05-20T11:30:46;24.40;99.90
11152;DHT22;5630;49.342;10.802;2023-05-20T11:33:13;24.40;99.90
11152;DHT22;5630;49.342;10.802;2023-05-20T11:35:46;24.40;99.90
11152;DHT22;5630;49.342;10.802;2023-05-20T11:38:13;24.30;99.90
11152;DHT22;5630;49.342;10.802;2023-05-20T11:43:13;23.70;99.90
11152;DHT22;5630;49.342;10.802;2023-05-20T11:45:40;23.80;99.90
11152;DHT22;5630;49.342;10.802;2023-05-20T11:48:06;23.80;99.90
11152;DHT22;5630;49.342;10.802;2023-05-20T11:50:38;24.10;99.90
11152;DHT22;5630;49.342;10.802;2023-05-20T11:53:06;24.10;99.90
11152;DHT22;5630;49.342;10.802;2023-05-20T11:55:33;24.30;99.90
11152;DHT22;5630;49.342;10.802;2023-05-20T11:57:59;24.40;99.90
11152;DHT22;5630;49.342;10.802;2023-05-20T12:00:25;24.40;99.90
11152;DHT22;5630;49.342;10.802;2023-05-20T12:02:51;24.40;99.90
11152;DHT22;5630;49.342;10.802;2023-05-20T12:05:17;24.40;99.90
11152;DHT22;5630;49.342;10.802;2023-05-20T12:07:43;24.30;99.90
11152;DHT22;5630;49.342;10.802;2023-05-20T12:10:09;24.20;99.90
11152;DHT22;5630;49.342;10.802;2023-05-20T12:12:35;24.30;99.90
11152;DHT22;5630;49.342;10.802;2023-05-20T12:15:04;24.30;99.90
11152;DHT22;5630;49.342;10.802;2023-05-20T12:17:48;24.30;99.90
11152;DHT22;5630;49.342;10.802;2023-05-20T12:20:15;24.40;99.90
11152;DHT22;5630;49.342;10.802;2023-05-20T12:22:45;24.40;99.90
11152;DHT22;5630;49.342;10.802;2023-05-20T12:25:12;24.50;99.90
11152;DHT22;5630;49.342;10.802;2023-05-20T12:27:39;24.70;99.90
11152;DHT22;5630;49.342;10.802;2023-05-20T12:30:05;24.70;99.90
11152;DHT22;5630;49.342;10.802;2023-05-20T12:32:31;24.60;99.90
11152;DHT22;5630;49.342;10.802;2023-05-20T12:34:57;24.60;99.90
11152;DHT22;5630;49.342;10.802;2023-05-20T12:37:23;24.60;99.90
11152;DHT22;5630;49.342;10.802;2023-05-20T12:39:48;24.70;99.90
11152;DHT22;5630;49.342;10.802;2023-05-20T12:42:14;24.70;99.90
11152;DHT22;5630;49.342;10.802;2023-05-20T12:44:39;24.60;99.90
11152;DHT22;5630;49.342;10.802;2023-05-20T12:49:31;24.40;99.90
11152;DHT22;5630;49.342;10.802;2023-05-20T12:51:56;24.30;99.90
11152;DHT22;5630;49.342;10.802;2023-05-20T12:54:22;24.20;99.90
11152;DHT22;5630;49.342;10.802;2023-05-20T12:56:52;24.00;99.90
11152;DHT22;5630;49.342;10.802;2023-05-20T12:59:18;23.90;99.90
11152;DHT22;5630;49.342;10.802;2023-05-20T13:01:44;23.80;99.90
11152;DHT22;5630;49.342;10.802;2023-05-20T13:04:09;23.70;99.90
11152;DHT22;5630;49.342;10.802;2023-05-20T13:06:35;23.80;99.90
11152;DHT22;5630;49.342;10.802;2023-05-20T13:09:00;23.90;99.90
11152;DHT22;5630;49.342;10.802;2023-05-20T13:11:26;24.10;99.90
11152;DHT22;5630;49.342;10.802;2023-05-20T13:13:54;24.20;99.90
11152;DHT22;5630;49.342;10.802;2023-05-20T13:16:21;24.10;99.90
11152;DHT22;5630;49.342;10.802;2023-05-20T13:18:47;23.90;99.90
11152;DHT22;5630;49.342;10.802;2023-05-20T13:21:13;23.80;99.90
11152;DHT22;5630;49.342;10.802;2023-05-20T13:23:40;23.70;99.90
11152;DHT22;5630;49.342;10.802;2023-05-20T13:26:06;23.70;99.90
11152;DHT22;5630;49.342;10.802;2023-05-20T13:28:36;23.60;99.90
11152;DHT22;5630;49.342;10.802;2023-05-20T13:31:04;23.50;99.90
11152;DHT22;5630;49.342;10.802;2023-05-20T13:33:31;23.50;99.90
11152;DHT22;5630;49.342;10.802;2023-05-20T13:35:57;23.40;99.90
11152;DHT22;5630;49.342;10.802;2023-05-20T13:38:27;23.50;99.90
11152;DHT22;5630;49.342;10.802;2023-05-20T13:41:06;23.50;99.90
11152;DHT22;5630;49.342;10.802;2023-05-20T13:43:32;23.30;99.90
11152;DHT22;5630;49.342;10.802;2023-05-20T13:45:59;23.30;99.90
11152;DHT22;5630;49.342;10.802;2023-05-20T13:48:26;23.30;99.90
11152;DHT22;5630;49.342;10.802;2023-05-20T13:50:52;23.20;99.90
11152;DHT22;5630;49.342;10.802;2023-05-20T13:53:19;23.00;99.90
11152;DHT22;5630;49.342;10.802;2023-05-20T13:55:45;22.90;99.90
11152;DHT22;5630;49.342;10.802;2023-05-20T13:58:24;23.00;99.90
11152;DHT22;5630;49.342;10.802;2023-05-20T14:00:55;22.80;99.90
11152;DHT22;5630;49.342;10.802;2023-05-20T14:03:22;22.80;99.90
11152;DHT22;5630;49.342;10.802;2023-05-20T14:05:48;22.70;99.90
11152;DHT22;5630;49.342;10.802;2023-05-20T14:08:14;22.50;99.90
11152;DHT22;5630;49.342;10.802;2023-05-20T14:10:39;22.60;99.90
11152;DHT22;5630;49.342;10.802;2023-05-20T14:13:05;22.50;99.90
11152;DHT22;5630;49.342;10.802;2023-05-20T14:15:35;22.50;99.90
11152;DHT22;5630;49.342;10.802;2023-05-20T14:18:01;22.60;99.90
11152;DHT22;5630;49.342;10.802;2023-05-20T14:20:28;22.60;99.90
11152;DHT22;5630;49.342;10.802;2023-05-20T14:22:54;22.70;99.90
11152;DHT22;5630;49.342;10.802;2023-05-20T14:25:20;22.90;99.90
11152;DHT22;5630;49.342;10.802;2023-05-20T14:27:46;23.10;99.90
11152;DHT22;5630;49.342;10.802;2023-05-20T14:30:12;23.30;99.90
11152;DHT22;5630;49.342;10.802;2023-05-20T14:32:41;23.40;99.90
11152;DHT22;5630;49.342;10.802;2023-05-20T14:35:07;23.60;99.90
11152;DHT22;5630;49.342;10.802;2023-05-20T14:37:33;23.70;99.90
11152;DHT22;5630;49.342;10.802;2023-05-20T14:39:58;23.80;99.90
11152;DHT22;5630;49.342;10.802;2023-05-20T14:42:24;23.80;99.90
11152;DHT22;5630;49.342;10.802;2023-05-20T14:44:50;23.80;99.90
11152;DHT22;5630;49.342;10.802;2023-05-20T14:47:15;23.70;99.90
11152;DHT22;5630;49.342;10.802;2023-05-20T14:49:46;23.80;99.90
11152;DHT22;5630;49.342;10.802;2023-05-20T14:52:12;23.90;99.90
11152;DHT22;5630;49.342;10.802;2023-05-20T14:54:37;23.80;99.90
11152;DHT22;5630;49.342;10.802;2023-05-20T14:57:04;23.80;99.90
11152;DHT22;5630;49.342;10.802;2023-05-20T14:59:31;23.90;99.90
11152;DHT22;5630;49.342;10.802;2023-05-20T15:01:56;23.90;99.90
11152;DHT22;5630;49.342;10.802;2023-05-20T15:04:22;23.80;99.90
11152;DHT22;5630;49.342;10.802;2023-05-20T15:06:48;23.80;99.90
11152;DHT22;5630;49.342;10.802;2023-05-20T15:09:13;23.90;99.90
11152;DHT22;5630;49.342;10.802;2023-05-20T15:11:39;23.90;99.90
11152;DHT22;5630;49.342;10.802;2023-05-20T15:14:05;23.90;99.90
11152;DHT22;5630;49.342;10.802;2023-05-20T15:16:30;23.80;99.90
11152;DHT22;5630;49.342;10.802;2023-05-20T15:18:56;23.60;99.90
11152;DHT22;5630;49.342;10.802;2023-05-20T15:21:21;23.50;99.90
11152;DHT22;5630;49.342;10.802;2023-05-20T15:23:47;23.50;99.90
11152;DHT22;5630;49.342;10.802;2023-05-20T15:26:13;23.40;99.90
11152;DHT22;5630;49.342;10.802;2023-05-20T15:28:39;23.30;99.90
11152;DHT22;5630;49.342;10.802;2023-05-20T15:31:05;23.20;99.90
11152;DHT22;5630;49.342;10.802;2023-05-20T15:33:31;23.10;99.90
11152;DHT22;5630;49.342;10.802;2023-05-20T15:35:56;23.10;99.90
11152;DHT22;5630;49.342;10.802;2023-05-20T15:38:22;23.10;99.90
11152;DHT22;5630;49.342;10.802;2023-05-20T15:40:48;23.00;99.90
11152;DHT22;5630;49.342;10.802;2023-05-20T15:43:16;23.00;99.90
11152;DHT22;5630;49.342;10.802;2023-05-20T15:45:43;23.00;99.90
11152;DHT22;5630;49.342;10.802;2023-05-20T15:48:09;22.90;99.90
11152;DHT22;5630;49.342;10.802;2023-05-20T15:50:35;22.80;99.90
11152;DHT22;5630;49.342;10.802;2023-05-20T15:53:01;22.60;99.90
11152;DHT22;5630;49.342;10.802;2023-05-20T15:55:27;22.60;99.90
11152;DHT22;5630;49.342;10.802;2023-05-20T15:57:52;22.60;99.90
11152;DHT22;5630;49.342;10.802;2023-05-20T16:00:19;22.50;99.90
11152;DHT22;5630;49.342;10.802;2023-05-20T16:02:45;22.40;99.90
11152;DHT22;5630;49.342;10.802;2023-05-20T16:05:10;22.40;99.90
11152;DHT22;5630;49.342;10.802;2023-05-20T16:07:36;22.40;99.90
11152;DHT22;5630;49.342;10.802;2023-05-20T16:10:02;22.30;99.90
11152;DHT22;5630;49.342;10.802;2023-05-20T16:12:28;22.30;99.90
11152;DHT22;5630;49.342;10.802;2023-05-20T16:14:54;22.30;99.90
11152;DHT22;5630;49.342;10.802;2023-05-20T16:17:20;22.20;99.90
11152;DHT22;5630;49.342;10.802;2023-05-20T16:19:46;22.20;99.90
11152;DHT22;5630;49.342;10.802;2023-05-20T16:22:12;22.30;99.90
11152;DHT22;5630;49.342;10.802;2023-05-20T16:24:41;22.30;99.90
11152;DHT22;5630;49.342;10.802;2023-05-20T16:27:07;22.30;99.90
11152;DHT22;5630;49.342;10.802;2023-05-20T16:29:32;22.30;99.90
11152;DHT22;5630;49.342;10.802;2023-05-20T16:31:58;22.30;99.90
11152;DHT22;5630;49.342;10.802;2023-05-20T16:34:24;22.20;99.90
11152;DHT22;5630;49.342;10.802;2023-05-20T16:36:51;22.20;99.90
11152;DHT22;5630;49.342;10.802;2023-05-20T16:39:16;22.20;99.90
11152;DHT22;5630;49.342;10.802;2023-05-20T16:41:42;22.10;99.90
11152;DHT22;5630;49.342;10.802;2023-05-20T16:44:08;22.00;99.90
11152;DHT22;5630;49.342;10.802;2023-05-20T16:46:34;22.00;99.90
11152;DHT22;5630;49.342;10.802;2023-05-20T16:49:00;22.00;99.90
11152;DHT22;5630;49.342;10.802;2023-05-20T16:51:26;21.90;99.90
11152;DHT22;5630;49.342;10.802;2023-05-20T16:53:51;21.90;99.90
11152;DHT22;5630;49.342;10.802;2023-05-20T16:56:17;21.90;99.90
11152;DHT22;5630;49.342;10.802;2023-05-20T16:58:43;21.90;99.90
11152;DHT22;5630;49.342;10.802;2023-05-20T17:01:08;21.80;99.90
11152;DHT22;5630;49.342;10.802;2023-05-20T17:03:34;21.90;99.90
11152;DHT22;5630;49.342;10.802;2023-05-20T17:06:01;21.80;99.90
11152;DHT22;5630;49.342;10.802;2023-05-20T17:08:27;21.80;99.90
11152;DHT22;5630;49.342;10.802;2023-05-20T17:10:52;21.80;99.90
11152;DHT22;5630;49.342;10.802;2023-05-20T17:13:18;21.80;99.90
11152;DHT22;5630;49.342;10.802;2023-05-20T17:15:43;21.80;99.90
11152;DHT22;5630;49.342;10.802;2023-05-20T17:18:09;21.80;99.90
11152;DHT22;5630;49.342;10.802;2023-05-20T17:20:35;21.70;99.90
11152;DHT22;5630;49.342;10.802;2023-05-20T17:23:01;21.70;99.90
11152;DHT22;5630;49.342;10.802;2023-05-20T17:25:26;21.60;99.90
11152;DHT22;5630;49.342;10.802;2023-05-20T17:27:52;21.60;99.90
11152;DHT22;5630;49.342;10.802;2023-05-20T17:30:17;21.50;99.90
11152;DHT22;5630;49.342;10.802;2023-05-20T17:32:43;21.50;99.90
11152;DHT22;5630;49.342;10.802;2023-05-20T17:35:09;21.50;99.90
11152;DHT22;5630;49.342;10.802;2023-05-20T17:37:34;21.50;99.90
11152;DHT22;5630;49.342;10.802;2023-05-20T17:40:01;21.40;99.90
11152;DHT22;5630;49.342;10.802;2023-05-20T17:42:30;21.40;99.90
11152;DHT22;5630;49.342;10.802;2023-05-20T17:44:55;21.40;99.90
11152;DHT22;5630;49.342;10.802;2023-05-20T17:47:21;21.30;99.90
11152;DHT22;5630;49.342;10.802;2023-05-20T17:49:47;21.20;99.90
11152;DHT22;5630;49.342;10.802;2023-05-20T17:52:12;21.20;99.90
11152;DHT22;5630;49.342;10.802;2023-05-20T17:54:38;21.20;99.90
11152;DHT22;5630;49.342;10.802;2023-05-20T17:57:03;21.20;99.90
11152;DHT22;5630;49.342;10.802;2023-05-20T17:59:29;21.10;99.90
11152;DHT22;5630;49.342;10.802;2023-05-20T18:01:58;21.00;99.90
11152;DHT22;5630;49.342;10.802;2023-05-20T18:04:23;21.00;99.90
11152;DHT22;5630;49.342;10.802;2023-05-20T18:06:49;20.90;99.90
11152;DHT22;5630;49.342;10.802;2023-05-20T18:09:15;20.90;99.90
11152;DHT22;5630;49.342;10.802;2023-05-20T18:11:40;20.90;99.90
11152;DHT22;5630;49.342;10.802;2023-05-20T18:14:06;20.90;99.90
11152;DHT22;5630;49.342;10.802;2023-05-20T18:16:32;20.80;99.90
11152;DHT22;5630;49.342;10.802;2023-05-20T18:18:57;20.70;99.90
11152;DHT22;5630;49.342;10.802;2023-05-20T18:21:23;20.80;99.90
11152;DHT22;5630;49.342;10.802;2023-05-20T18:23:49;20.70;99.90
11152;DHT22;5630;49.342;10.802;2023-05-20T18:26:15;20.70;99.90
11152;DHT22;5630;49.342;10.802;2023-05-20T18:28:41;20.60;99.90
11152;DHT22;5630;49.342;10.802;2023-05-20T18:31:07;20.50;99.90
11152;DHT22;5630;49.342;10.802;2023-05-20T18:33:33;20.40;99.90
11152;DHT22;5630;49.342;10.802;2023-05-20T18:35:59;20.20;99.90
11152;DHT22;5630;49.342;10.802;2023-05-20T18:38:24;20.10;99.90
11152;DHT22;5630;49.342;10.802;2023-05-20T18:40:50;20.10;99.90
11152;DHT22;5630;49.342;10.802;2023-05-20T18:43:16;20.00;99.90
11152;DHT22;5630;49.342;10.802;2023-05-20T18:45:41;19.90;99.90
11152;DHT22;5630;49.342;10.802;2023-05-20T18:48:07;19.90;99.90
11152;DHT22;5630;49.342;10.802;2023-05-20T18:50:33;19.80;99.90
11152;DHT22;5630;49.342;10.802;2023-05-20T18:52:58;19.70;99.90
11152;DHT22;5630;49.342;10.802;2023-05-20T18:55:24;19.70;99.90
11152;DHT22;5630;49.342;10.802;2023-05-20T18:57:50;19.60;99.90
11152;DHT22;5630;49.342;10.802;2023-05-20T19:00:16;19.60;99.90
11152;DHT22;5630;49.342;10.802;2023-05-20T19:02:42;19.50;99.90